Time;durP1;ratioP1;P1;durP2;ratioP2;P2;SDS_P1;SDS_P2;PMS_P1;PMS_P2;Temp;Humidity;BMP_temperature;BMP_pressure;BME280_temperature;BME280_humidity;BME280_pressure;Samples;Min_cycle;Max_cycle;Signal;HPM_P1;HPM_P2
2023/12/21 00:02:07;;;;;;;25.23;3.40;;;9.90;99.90;;;;;;5012848;28;20491;-93
2023/12/21 00:04:33;;;;;;;22.33;3.67;;;9.70;99.90;;;;;;4993342;28;20434;-87
2023/12/21 00:06:59;;;;;;;23.92;3.38;;;9.70;99.90;;;;;;4993896;28;20898;-93
2023/12/21 00:09:25;;;;;;;22.63;3.05;;;9.70;99.90;;;;;;4993087;28;20458;-87
2023/12/21 00:11:50;;;;;;;21.57;3.40;;;10.00;99.90;;;;;;5009508;28;20411;-89
2023/12/21 00:14:16;;;;;;;21.15;3.55;;;9.80;99.90;;;;;;4993914;28;20414;-91
2023/12/21 00:16:42;;;;;;;22.90;3.40;;;10.00;99.90;;;;;;4992722;28;20423;-87
2023/12/21 00:19:07;;;;;;;25.20;3.70;;;10.00;99.90;;;;;;4992695;28;20862;-87
2023/12/21 00:21:33;;;;;;;24.58;3.47;;;9.80;99.90;;;;;;5008709;28;20782;-89
2023/12/21 00:23:59;;;;;;;20.50;3.20;;;10.00;99.90;;;;;;4999148;28;20412;-88
2023/12/21 00:26:24;;;;;;;22.70;3.57;;;9.90;99.90;;;;;;5012262;28;20417;-86
2023/12/21 00:28:50;;;;;;;18.10;3.17;;;9.80;99.90;;;;;;5012936;28;20763;-86
2023/12/21 00:31:15;;;;;;;21.17;3.30;;;10.00;99.90;;;;;;5012199;28;20418;-89
2023/12/21 00:33:41;;;;;;;25.33;3.53;;;9.80;99.90;;;;;;5012387;28;20482;-89
2023/12/21 00:36:07;;;;;;;21.23;3.33;;;9.80;99.90;;;;;;5029550;28;20586;-93
2023/12/21 00:38:32;;;;;;;23.00;3.25;;;9.80;99.90;;;;;;5012157;28;20532;-88
2023/12/21 00:40:59;;;;;;;21.53;3.23;;;9.80;99.90;;;;;;5013487;28;20440;-90
2023/12/21 00:43:25;;;;;;;19.92;3.72;;;10.00;99.90;;;;;;5012450;28;20417;-92
2023/12/21 00:45:51;;;;;;;20.27;3.10;;;10.10;99.90;;;;;;5013304;28;20405;-86
2023/12/21 00:48:17;;;;;;;18.50;2.90;;;10.10;99.90;;;;;;5020343;28;20486;-91
2023/12/21 00:50:42;;;;;;;18.05;3.50;;;10.00;99.90;;;;;;5032240;28;20415;-89
2023/12/21 00:53:08;;;;;;;21.00;3.37;;;10.00;99.90;;;;;;5031950;28;20400;-87
2023/12/21 00:55:34;;;;;;;24.43;3.83;;;9.80;99.90;;;;;;5031827;28;20411;-87
2023/12/21 00:58:00;;;;;;;19.45;2.75;;;10.00;99.90;;;;;;5032606;28;20727;-89
2023/12/21 01:00:25;;;;;;;18.98;3.28;;;9.80;99.90;;;;;;5052411;28;20942;-92
2023/12/21 01:02:51;;;;;;;18.50;3.07;;;10.10;99.90;;;;;;5036532;28;20407;-88
2023/12/21 01:05:17;;;;;;;18.07;2.50;;;9.90;99.90;;;;;;5052690;28;20453;-87
2023/12/21 01:07:42;;;;;;;18.67;3.03;;;9.80;99.90;;;;;;5036143;28;20933;-91
2023/12/21 01:10:08;;;;;;;17.83;2.77;;;9.90;99.90;;;;;;5036821;28;20407;-87
2023/12/21 01:12:34;;;;;;;19.20;3.00;;;9.80;99.90;;;;;;5035954;28;20524;-89
2023/12/21 01:15:01;;;;;;;16.17;2.20;;;9.80;99.90;;;;;;5035416;28;20442;-88
2023/12/21 01:17:26;;;;;;;19.48;2.53;;;9.90;99.90;;;;;;5035542;28;20817;-94
2023/12/21 01:19:52;;;;;;;21.23;3.08;;;10.10;99.90;;;;;;5035624;28;20436;-89
2023/12/21 01:22:19;;;;;;;19.97;2.83;;;10.10;99.90;;;;;;5021177;28;20405;-87
2023/12/21 01:24:45;;;;;;;22.85;3.25;;;9.80;99.90;;;;;;5049015;28;20404;-87
2023/12/21 01:27:11;;;;;;;21.42;3.03;;;9.80;99.90;;;;;;5032258;28;20424;-88
2023/12/21 01:29:36;;;;;;;21.83;3.63;;;9.80;99.90;;;;;;5015555;28;20467;-88
2023/12/21 01:32:02;;;;;;;21.50;2.97;;;9.70;99.90;;;;;;5015266;28;20413;-93
2023/12/21 01:34:28;;;;;;;23.52;3.83;;;9.70;99.90;;;;;;5015343;28;20410;-88
2023/12/21 01:36:54;;;;;;;18.87;3.23;;;9.90;99.90;;;;;;5031770;28;20401;-90
2023/12/21 01:39:19;;;;;;;24.00;3.77;;;9.70;99.90;;;;;;5014763;28;20435;-88
2023/12/21 01:41:45;;;;;;;25.42;3.78;;;10.00;99.90;;;;;;5015775;28;20896;-89
2023/12/21 01:44:10;;;;;;;21.67;4.10;;;9.70;99.90;;;;;;5032059;28;20897;-88
2023/12/21 01:46:37;;;;;;;24.00;3.87;;;9.80;99.90;;;;;;5015924;28;20441;-94
2023/12/21 01:49:03;;;;;;;27.47;4.30;;;9.80;99.90;;;;;;5015091;28;20449;-88
2023/12/21 01:51:31;;;;;;;22.65;3.67;;;9.60;99.90;;;;;;5014726;28;20423;-92
2023/12/21 01:53:57;;;;;;;19.05;3.20;;;9.60;99.90;;;;;;5015207;28;20397;-88
2023/12/21 01:56:23;;;;;;;28.50;3.70;;;9.60;99.90;;;;;;5030855;28;21006;-90
2023/12/21 01:58:49;;;;;;;24.80;4.30;;;9.60;99.90;;;;;;5017449;28;20508;-89
2023/12/21 02:01:17;;;;;;;24.05;3.63;;;10.00;99.90;;;;;;5034286;28;20403;-88
2023/12/21 02:03:43;;;;;;;22.70;3.85;;;9.60;99.90;;;;;;5035372;28;20404;-89
2023/12/21 02:06:09;;;;;;;25.20;4.05;;;9.60;99.90;;;;;;5034531;28;20968;-87
2023/12/21 02:08:34;;;;;;;26.58;4.10;;;9.60;99.90;;;;;;5051434;28;20404;-87
2023/12/21 02:11:06;;;;;;;26.10;4.00;;;9.70;99.90;;;;;;5034244;28;20772;-88
2023/12/21 02:13:32;;;;;;;23.83;4.75;;;9.60;99.90;;;;;;5034269;28;20422;-87
2023/12/21 02:15:59;;;;;;;24.58;4.53;;;9.60;99.90;;;;;;5025181;28;20409;-89
2023/12/21 02:18:25;;;;;;;27.83;4.73;;;9.60;99.90;;;;;;5014932;28;20807;-86
2023/12/21 02:20:51;;;;;;;21.23;4.57;;;9.60;99.90;;;;;;5015172;28;20563;-88
2023/12/21 02:23:19;;;;;;;28.17;4.97;;;9.60;99.90;;;;;;5014399;28;20524;-88
2023/12/21 02:25:45;;;;;;;22.75;5.00;;;9.70;99.90;;;;;;5014636;28;20409;-89
2023/12/21 02:28:11;;;;;;;20.75;3.78;;;9.70;99.90;;;;;;5030726;28;20932;-88
2023/12/21 02:30:36;;;;;;;25.63;4.50;;;9.70;99.90;;;;;;5014096;28;20834;-89
2023/12/21 02:33:02;;;;;;;22.65;4.03;;;9.80;99.90;;;;;;5015072;28;20409;-90
2023/12/21 02:35:28;;;;;;;28.10;5.40;;;9.60;99.90;;;;;;5013635;28;20893;-87
2023/12/21 02:37:53;;;;;;;22.65;4.40;;;9.60;99.90;;;;;;5014759;28;20580;-88
2023/12/21 02:40:19;;;;;;;26.13;4.70;;;9.60;99.90;;;;;;5014281;28;20471;-88
2023/12/21 02:42:45;;;;;;;24.83;4.60;;;9.90;99.90;;;;;;5030839;28;20405;-89
2023/12/21 02:45:10;;;;;;;25.85;4.63;;;9.60;99.90;;;;;;5013906;28;20944;-93
2023/12/21 02:47:36;;;;;;;24.17;4.40;;;9.80;99.90;;;;;;5014049;28;21062;-88
2023/12/21 02:50:02;;;;;;;25.30;4.72;;;9.70;99.90;;;;;;5021648;28;20856;-88
2023/12/21 02:52:28;;;;;;;23.47;4.70;;;9.30;99.90;;;;;;5030523;28;20402;-92
2023/12/21 02:54:53;;;;;;;19.97;4.40;;;9.60;99.90;;;;;;5031086;28;20501;-87
2023/12/21 02:57:19;;;;;;;23.88;5.00;;;9.80;99.90;;;;;;5047046;28;20416;-89
2023/12/21 02:59:44;;;;;;;28.80;4.90;;;9.70;99.90;;;;;;5030997;28;20440;-88
2023/12/21 03:02:10;;;;;;;25.20;4.82;;;9.60;99.90;;;;;;5030712;28;20408;-87
2023/12/21 03:04:36;;;;;;;23.00;5.20;;;9.60;99.90;;;;;;5030468;28;20761;-88
2023/12/21 03:07:02;;;;;;;21.67;5.23;;;9.60;99.90;;;;;;5030599;28;20963;-89
2023/12/21 03:09:28;;;;;;;24.23;4.95;;;9.60;99.90;;;;;;5029728;28;20412;-92
2023/12/21 03:11:54;;;;;;;26.02;5.35;;;9.60;99.90;;;;;;5030414;28;20893;-89
2023/12/21 03:14:22;;;;;;;22.77;5.13;;;9.60;99.90;;;;;;5030242;28;20524;-89
2023/12/21 03:16:49;;;;;;;22.95;5.15;;;9.60;99.90;;;;;;5030504;28;20410;-94
2023/12/21 03:19:14;;;;;;;23.90;4.88;;;9.70;99.90;;;;;;5030027;28;20463;-88
2023/12/21 03:21:40;;;;;;;21.73;5.43;;;9.60;99.90;;;;;;5029731;28;20416;-87
2023/12/21 03:24:06;;;;;;;22.80;4.57;;;9.60;99.90;;;;;;5030145;28;20444;-89
2023/12/21 03:26:32;;;;;;;20.52;4.75;;;9.60;99.90;;;;;;5030180;28;20488;-88
2023/12/21 03:28:58;;;;;;;19.63;4.23;;;9.90;99.90;;;;;;5024104;28;20988;-90
2023/12/21 03:31:23;;;;;;;18.52;4.32;;;9.60;99.90;;;;;;5013307;28;20907;-89
2023/12/21 03:33:49;;;;;;;22.85;4.35;;;9.60;99.90;;;;;;5014364;28;20408;-88
2023/12/21 03:36:15;;;;;;;21.45;4.57;;;9.60;99.90;;;;;;5012963;28;20424;-88
2023/12/21 03:38:40;;;;;;;19.17;4.20;;;9.60;99.90;;;;;;5013223;28;20945;-90
2023/12/21 03:41:06;;;;;;;15.93;3.13;;;9.70;99.90;;;;;;5013272;28;20398;-89
2023/12/21 03:43:32;;;;;;;17.92;4.00;;;9.70;99.90;;;;;;5013319;28;20410;-88
2023/12/21 03:45:57;;;;;;;20.37;3.67;;;9.70;99.90;;;;;;5013564;28;20452;-88
2023/12/21 03:48:23;;;;;;;22.23;4.10;;;9.70;99.90;;;;;;5029921;28;20405;-88
2023/12/21 03:50:48;;;;;;;18.30;3.72;;;9.70;99.90;;;;;;5013141;28;20433;-88
2023/12/21 03:53:16;;;;;;;18.37;3.80;;;9.70;99.90;;;;;;5012877;28;20889;-88
2023/12/21 03:55:42;;;;;;;18.85;4.05;;;9.50;99.90;;;;;;5013350;28;20409;-88
2023/12/21 03:58:08;;;;;;;22.80;4.30;;;9.60;99.90;;;;;;5013450;28;20401;-89
2023/12/21 04:00:34;;;;;;;21.00;4.27;;;9.50;99.90;;;;;;5013091;28;20463;-89
2023/12/21 04:03:01;;;;;;;19.58;3.58;;;9.70;99.90;;;;;;5013322;28;20424;-89
2023/12/21 04:05:27;;;;;;;22.83;3.95;;;9.70;99.90;;;;;;5012855;28;20445;-87
2023/12/21 04:07:52;;;;;;;21.73;3.85;;;9.70;99.90;;;;;;5013659;28;20918;-91
2023/12/21 04:10:18;;;;;;;22.73;3.77;;;9.70;99.90;;;;;;5012741;28;20401;-88
2023/12/21 04:12:43;;;;;;;18.03;3.27;;;9.60;99.90;;;;;;5013337;28;20410;-89
2023/12/21 04:15:11;;;;;;;18.75;4.07;;;9.80;99.90;;;;;;5012516;28;20424;-87
2023/12/21 04:17:37;;;;;;;18.88;3.70;;;9.70;99.90;;;;;;5013562;28;20438;-87
2023/12/21 04:20:04;;;;;;;20.52;3.75;;;9.70;99.90;;;;;;5012660;28;20417;-90
2023/12/21 04:22:29;;;;;;;21.80;4.07;;;9.70;99.90;;;;;;5012939;28;20394;-89
2023/12/21 04:24:55;;;;;;;20.48;3.67;;;9.70;99.90;;;;;;5029613;28;20410;-88
2023/12/21 04:27:21;;;;;;;23.08;3.58;;;9.80;99.90;;;;;;5012388;28;20463;-90
2023/12/21 04:29:46;;;;;;;20.53;4.07;;;9.80;99.90;;;;;;5029719;28;20397;-89
2023/12/21 04:32:12;;;;;;;19.40;4.22;;;9.90;99.90;;;;;;5012190;28;20753;-87
2023/12/21 04:34:38;;;;;;;26.87;4.87;;;9.70;99.90;;;;;;5015852;28;20433;-90
2023/12/21 04:37:03;;;;;;;24.87;4.60;;;10.10;99.90;;;;;;5032945;28;20500;-89
2023/12/21 04:39:29;;;;;;;18.73;4.78;;;9.70;99.90;;;;;;5017036;28;20957;-91
2023/12/21 04:41:55;;;;;;;21.40;4.65;;;9.60;99.90;;;;;;5017032;28;20499;-88
2023/12/21 04:44:21;;;;;;;23.55;4.68;;;10.10;99.90;;;;;;5032827;28;20409;-89
2023/12/21 04:46:48;;;;;;;23.40;5.13;;;9.60;99.90;;;;;;5016925;28;20405;-88
2023/12/21 04:49:16;;;;;;;23.20;5.70;;;9.60;99.90;;;;;;5033246;28;20409;-90
2023/12/21 04:51:43;;;;;;;22.58;5.15;;;9.60;99.90;;;;;;5017333;28;20401;-90
2023/12/21 04:54:08;;;;;;;24.63;5.67;;;9.60;99.90;;;;;;5016719;28;20788;-88
2023/12/21 04:56:40;;;;;;;24.27;4.70;;;9.60;99.90;;;;;;5016653;28;20409;-88
2023/12/21 04:59:05;;;;;;;23.45;4.93;;;9.60;99.90;;;;;;5033223;28;20512;-89
2023/12/21 05:01:31;;;;;;;22.37;4.70;;;9.60;99.90;;;;;;5016495;28;20496;-93
2023/12/21 05:03:57;;;;;;;22.33;4.03;;;9.60;99.90;;;;;;5016666;28;20412;-88
2023/12/21 05:06:22;;;;;;;19.90;4.13;;;9.60;99.90;;;;;;5015990;28;20428;-88
2023/12/21 05:08:48;;;;;;;18.97;4.03;;;9.90;99.90;;;;;;5016782;28;20410;-86
2023/12/21 05:11:16;;;;;;;21.70;3.72;;;9.60;99.90;;;;;;5031766;28;20455;-88
2023/12/21 05:13:42;;;;;;;20.15;3.58;;;9.60;99.90;;;;;;5033091;28;20888;-89
2023/12/21 05:16:07;;;;;;;18.45;3.10;;;9.60;99.90;;;;;;5016187;28;20475;-92
2023/12/21 05:18:35;;;;;;;21.73;3.87;;;9.60;99.90;;;;;;5016587;28;20405;-89
2023/12/21 05:21:01;;;;;;;18.23;3.30;;;10.00;99.90;;;;;;5015900;28;20475;-89
2023/12/21 05:23:27;;;;;;;20.37;3.20;;;9.60;99.90;;;;;;5015955;28;20421;-88
2023/12/21 05:25:52;;;;;;;19.10;3.33;;;9.70;99.90;;;;;;5016157;28;20401;-87
2023/12/21 05:28:18;;;;;;;23.38;3.22;;;9.70;99.90;;;;;;5016148;28;20452;-89
2023/12/21 05:30:43;;;;;;;21.80;3.00;;;9.70;99.90;;;;;;5016262;28;21064;-89
2023/12/21 05:33:09;;;;;;;21.50;2.97;;;9.80;99.90;;;;;;5015849;28;20444;-91
2023/12/21 05:35:35;;;;;;;22.75;2.83;;;9.70;99.90;;;;;;5015738;28;20896;-86
2023/12/21 05:38:01;;;;;;;21.00;3.42;;;10.30;99.90;;;;;;5015622;28;20401;-86
2023/12/21 05:40:26;;;;;;;20.08;3.78;;;9.60;99.90;;;;;;5031849;28;20444;-88
2023/12/21 05:42:52;;;;;;;18.87;2.97;;;10.00;99.90;;;;;;5015834;28;20417;-91
2023/12/21 05:45:18;;;;;;;19.65;3.13;;;10.30;99.90;;;;;;5014817;28;20401;-88
2023/12/21 05:47:43;;;;;;;22.13;3.53;;;9.70;99.90;;;;;;5015710;28;20420;-90
2023/12/21 05:50:10;;;;;;;22.97;3.50;;;9.90;99.90;;;;;;5015427;28;20413;-89
2023/12/21 05:52:36;;;;;;;18.50;3.77;;;9.70;99.90;;;;;;5015835;28;20440;-88
2023/12/21 05:55:02;;;;;;;21.25;3.55;;;9.70;99.90;;;;;;5030772;28;20467;-92
2023/12/21 05:57:28;;;;;;;21.23;3.67;;;9.70;99.90;;;;;;5049244;28;20448;-89
2023/12/21 05:59:57;;;;;;;17.83;3.05;;;9.70;99.90;;;;;;5016043;28;20425;-94
2023/12/21 06:02:23;;;;;;;18.00;2.90;;;9.70;99.90;;;;;;5048524;28;20414;-88
2023/12/21 06:04:50;;;;;;;18.75;3.20;;;9.70;99.90;;;;;;5015439;28;20412;-89
2023/12/21 06:07:15;;;;;;;13.45;3.00;;;9.90;99.90;;;;;;5048620;28;20414;-93
2023/12/21 06:09:41;;;;;;;16.10;2.60;;;9.70;99.90;;;;;;5015694;28;20417;-91
2023/12/21 06:12:07;;;;;;;17.67;3.00;;;10.00;99.90;;;;;;5014545;28;20431;-89
2023/12/21 06:14:33;;;;;;;18.53;3.43;;;9.80;99.90;;;;;;5014338;28;20408;-90
2023/12/21 06:16:59;;;;;;;15.73;2.78;;;9.60;99.90;;;;;;5048661;28;20406;-91
2023/12/21 06:19:24;;;;;;;17.45;3.45;;;9.90;99.90;;;;;;5015528;28;20429;-89
2023/12/21 06:21:50;;;;;;;17.17;3.00;;;9.80;99.90;;;;;;5016403;28;20415;-89
2023/12/21 06:24:16;;;;;;;20.70;3.70;;;9.90;99.90;;;;;;5014812;28;20437;-92
2023/12/21 06:26:42;;;;;;;17.00;3.40;;;10.00;99.90;;;;;;5015156;28;20405;-91
2023/12/21 06:29:08;;;;;;;18.45;3.42;;;9.40;99.90;;;;;;5014912;28;20497;-89
2023/12/21 06:31:34;;;;;;;15.55;3.28;;;9.80;99.90;;;;;;5017795;28;20492;-94
2023/12/21 06:34:03;;;;;;;15.80;3.73;;;9.40;99.90;;;;;;5031309;28;20455;-91
2023/12/21 06:36:29;;;;;;;17.98;4.35;;;9.70;99.90;;;;;;4999565;28;20445;-88
2023/12/21 06:38:54;;;;;;;18.33;3.88;;;9.70;99.90;;;;;;5015497;28;20905;-90
2023/12/21 06:41:20;;;;;;;20.58;4.63;;;10.00;99.90;;;;;;5031493;28;20449;-89
2023/12/21 06:43:47;;;;;;;20.33;4.80;;;10.00;99.90;;;;;;5014815;28;20488;-88
2023/12/21 06:46:13;;;;;;;20.33;4.20;;;9.70;99.90;;;;;;5014189;28;20412;-88
2023/12/21 06:48:40;;;;;;;20.45;4.60;;;9.90;99.90;;;;;;5015214;28;20760;-92
2023/12/21 06:51:09;;;;;;;18.03;4.40;;;9.60;99.90;;;;;;5014658;28;20490;-93
2023/12/21 06:53:34;;;;;;;19.52;4.03;;;9.70;99.90;;;;;;5016057;28;20420;-90
2023/12/21 06:56:00;;;;;;;17.58;3.90;;;9.60;99.90;;;;;;5013638;28;20804;-91
2023/12/21 06:58:27;;;;;;;15.45;3.80;;;9.60;99.90;;;;;;5015107;28;20911;-89
2023/12/21 07:00:53;;;;;;;15.82;3.83;;;9.70;99.90;;;;;;5014819;28;20435;-92
2023/12/21 07:03:19;;;;;;;14.38;3.90;;;9.60;99.90;;;;;;5014142;28;20492;-88
2023/12/21 07:05:45;;;;;;;13.80;3.90;;;9.50;99.90;;;;;;5014959;28;20787;-89
2023/12/21 07:08:11;;;;;;;15.32;3.40;;;9.50;99.90;;;;;;5032102;28;20445;-92
2023/12/21 07:10:36;;;;;;;19.23;4.32;;;9.70;99.90;;;;;;5014462;28;20409;-89
2023/12/21 07:13:02;;;;;;;14.10;3.53;;;9.50;99.90;;;;;;5014421;28;20488;-90
2023/12/21 07:15:31;;;;;;;19.27;3.80;;;9.50;99.90;;;;;;5012483;28;20407;-94
2023/12/21 07:17:57;;;;;;;19.83;3.80;;;9.50;99.90;;;;;;5010834;28;20407;-90
2023/12/21 07:20:25;;;;;;;16.55;3.47;;;9.40;99.90;;;;;;5012103;28;20767;-90
2023/12/21 07:22:51;;;;;;;21.00;4.57;;;9.50;99.90;;;;;;5011275;28;20399;-88
2023/12/21 07:25:17;;;;;;;19.08;4.18;;;9.50;99.90;;;;;;5010330;28;20434;-91
2023/12/21 07:27:43;;;;;;;19.35;4.72;;;9.50;99.90;;;;;;5011448;28;20419;-94
2023/12/21 07:30:09;;;;;;;27.90;4.75;;;9.50;99.90;;;;;;5009428;28;20534;-92
2023/12/21 07:32:35;;;;;;;28.77;5.30;;;9.50;99.90;;;;;;5027282;28;20774;-93
2023/12/21 07:35:00;;;;;;;20.30;4.30;;;9.80;99.90;;;;;;5010409;28;20399;-91
2023/12/21 07:37:26;;;;;;;24.17;4.80;;;9.50;99.90;;;;;;5012025;28;20805;-93
2023/12/21 07:39:52;;;;;;;22.40;4.47;;;9.50;99.90;;;;;;5010486;28;20438;-93
2023/12/21 07:42:17;;;;;;;22.83;4.23;;;9.60;99.90;;;;;;5010130;28;20407;-90
2023/12/21 07:44:44;;;;;;;24.40;5.03;;;9.50;99.90;;;;;;5010778;28;20408;-91
2023/12/21 07:47:10;;;;;;;25.65;5.00;;;9.50;99.90;;;;;;5010992;28;20422;-93
2023/12/21 07:49:36;;;;;;;25.55;5.05;;;9.60;99.90;;;;;;4996010;28;20403;-89
2023/12/21 07:52:11;;;;;;;24.23;5.30;;;9.40;99.90;;;;;;5010491;28;20403;-94
2023/12/21 07:54:36;;;;;;;23.02;4.97;;;9.60;99.90;;;;;;5009825;28;20499;-93
2023/12/21 07:57:02;;;;;;;26.08;5.50;;;9.50;99.90;;;;;;5010942;28;20451;-90
2023/12/21 07:59:28;;;;;;;29.85;6.35;;;9.60;99.90;;;;;;5011734;28;20510;-91
2023/12/21 08:01:54;;;;;;;34.07;6.20;;;9.60;99.90;;;;;;5010153;28;20410;-93
2023/12/21 08:04:20;;;;;;;33.60;5.80;;;9.70;99.90;;;;;;5010996;28;20407;-91
2023/12/21 08:06:46;;;;;;;32.03;5.90;;;9.60;99.90;;;;;;5010480;28;20774;-93
2023/12/21 08:09:11;;;;;;;32.93;5.97;;;9.90;99.90;;;;;;5010495;28;20411;-94
2023/12/21 08:11:37;;;;;;;36.73;5.87;;;10.20;99.90;;;;;;5010711;28;20914;-94
2023/12/21 08:14:03;;;;;;;29.90;4.82;;;9.70;99.90;;;;;;5010687;28;20949;-91
2023/12/21 08:16:36;;;;;;;28.60;5.27;;;9.80;99.90;;;;;;5011266;28;20404;-94
2023/12/21 08:19:02;;;;;;;28.30;4.22;;;9.70;99.90;;;;;;5012624;28;20403;-90
2023/12/21 08:21:31;;;;;;;28.63;4.50;;;10.10;99.90;;;;;;5028598;28;20443;-90
2023/12/21 08:24:04;;;;;;;30.23;5.20;;;9.80;99.90;;;;;;5010839;28;20468;-93
2023/12/21 08:26:33;;;;;;;27.40;4.70;;;9.70;99.90;;;;;;4995431;28;20414;-94
2023/12/21 08:28:59;;;;;;;34.22;4.35;;;9.90;99.90;;;;;;5012562;28;20411;-91
2023/12/21 08:31:26;;;;;;;31.43;4.90;;;10.00;99.90;;;;;;5026845;28;20411;-93
2023/12/21 08:33:52;;;;;;;32.63;5.40;;;10.00;99.90;;;;;;5011668;28;20530;-92
2023/12/21 08:36:20;;;;;;;25.88;4.18;;;10.00;99.90;;;;;;5011577;28;20459;-91
2023/12/21 08:38:49;;;;;;;32.72;5.53;;;9.80;99.90;;;;;;5027852;28;20411;-92
2023/12/21 08:41:15;;;;;;;30.13;4.35;;;10.00;99.90;;;;;;5010034;28;20422;-93
2023/12/21 08:43:43;;;;;;;33.00;4.90;;;9.90;99.90;;;;;;5011146;28;20494;-93
2023/12/21 08:46:09;;;;;;;28.58;4.72;;;10.10;99.90;;;;;;5009905;28;20417;-91
2023/12/21 08:48:34;;;;;;;33.20;4.73;;;10.10;99.90;;;;;;5027212;28;20474;-90
2023/12/21 08:51:00;;;;;;;34.23;5.00;;;9.70;99.90;;;;;;5035580;28;20413;-91
2023/12/21 08:53:26;;;;;;;32.67;5.18;;;10.20;99.90;;;;;;5033815;28;20477;-92
2023/12/21 08:55:52;;;;;;;36.53;4.88;;;10.00;99.90;;;;;;4994190;28;20910;-92
2023/12/21 08:58:21;;;;;;;31.17;4.88;;;10.20;99.90;;;;;;5008295;28;20415;-93
2023/12/21 09:00:46;;;;;;;24.37;4.53;;;10.10;99.90;;;;;;5010119;28;20438;-92
2023/12/21 09:03:12;;;;;;;30.43;4.67;;;10.30;99.90;;;;;;5010432;28;20407;-94
2023/12/21 09:05:38;;;;;;;34.45;4.88;;;10.30;99.90;;;;;;5015240;28;20467;-93
2023/12/21 09:08:03;;;;;;;33.50;4.77;;;10.00;99.90;;;;;;5029680;28;20464;-92
2023/12/21 09:10:31;;;;;;;32.97;4.90;;;10.00;99.90;;;;;;5013295;28;20407;-92
2023/12/21 09:13:00;;;;;;;27.93;3.83;;;10.00;99.90;;;;;;5012737;28;20410;-93
2023/12/21 09:15:28;;;;;;;26.63;3.78;;;10.20;99.90;;;;;;5021308;28;20451;-89
2023/12/21 09:17:56;;;;;;;27.60;4.28;;;10.20;99.90;;;;;;5008696;28;20449;-94
2023/12/21 09:20:25;;;;;;;33.63;4.50;;;10.20;99.90;;;;;;5011416;28;20536;-91
2023/12/21 09:22:50;;;;;;;29.15;4.28;;;10.60;99.90;;;;;;5046771;28;20786;-95
2023/12/21 09:25:18;;;;;;;24.00;3.93;;;10.20;99.90;;;;;;5030676;28;20410;-91
2023/12/21 09:27:44;;;;;;;30.52;3.97;;;10.30;99.90;;;;;;5013443;28;20442;-92
2023/12/21 09:30:10;;;;;;;30.37;4.77;;;10.60;99.90;;;;;;5013048;28;20422;-92
2023/12/21 09:32:38;;;;;;;29.63;3.80;;;10.30;99.90;;;;;;5013253;28;20949;-93
2023/12/21 09:35:04;;;;;;;20.45;3.25;;;10.70;99.90;;;;;;5013533;28;20449;-93
2023/12/21 09:37:33;;;;;;;26.25;3.35;;;10.20;99.90;;;;;;5017538;28;20426;-92
2023/12/21 09:39:58;;;;;;;22.10;3.20;;;10.10;99.90;;;;;;5014540;28;20815;-92
2023/12/21 09:42:27;;;;;;;22.10;3.27;;;10.30;99.90;;;;;;5030183;28;20466;-91
2023/12/21 09:44:53;;;;;;;24.87;3.03;;;10.50;99.90;;;;;;5012877;28;20443;-92
2023/12/21 09:47:22;;;;;;;22.63;2.80;;;10.40;99.90;;;;;;5045123;28;20418;-94
2023/12/21 09:49:48;;;;;;;23.08;3.15;;;10.50;99.90;;;;;;5045524;28;20395;-93
2023/12/21 09:52:18;;;;;;;20.73;3.03;;;10.50;99.90;;;;;;5063978;28;20456;-91
2023/12/21 09:54:48;;;;;;;20.57;2.97;;;10.30;99.90;;;;;;5066361;28;20406;-91
2023/12/21 09:57:18;;;;;;;24.67;3.45;;;10.50;99.90;;;;;;5049536;28;20451;-92
2023/12/21 09:59:44;;;;;;;22.45;2.90;;;10.60;99.90;;;;;;5048304;28;20504;-92
2023/12/21 10:02:12;;;;;;;24.25;3.33;;;10.40;99.90;;;;;;5045168;28;20898;-92
2023/12/21 10:04:44;;;;;;;25.15;3.63;;;10.50;99.90;;;;;;5045404;28;20418;-92
2023/12/21 10:07:10;;;;;;;20.73;3.22;;;10.80;99.90;;;;;;5011621;28;20415;-91
2023/12/21 10:09:39;;;;;;;24.48;2.95;;;10.50;99.90;;;;;;5011666;28;20411;-94
2023/12/21 10:12:07;;;;;;;23.42;3.38;;;10.50;99.90;;;;;;5012375;28;21140;-91
2023/12/21 10:14:32;;;;;;;18.92;2.92;;;10.50;99.90;;;;;;5012506;28;20399;-92
2023/12/21 10:17:02;;;;;;;20.77;2.90;;;11.10;99.90;;;;;;5015957;28;20411;-92
2023/12/21 10:19:27;;;;;;;19.58;2.42;;;10.70;99.90;;;;;;5015207;28;20441;-93
2023/12/21 10:21:53;;;;;;;19.13;2.80;;;10.70;99.90;;;;;;5014566;28;20481;-91
2023/12/21 10:24:19;;;;;;;17.27;2.30;;;10.60;99.90;;;;;;5014831;28;20904;-92
2023/12/21 10:26:47;;;;;;;19.65;2.38;;;10.60;99.90;;;;;;5015020;28;20397;-93
2023/12/21 10:29:20;;;;;;;18.67;2.38;;;10.70;99.90;;;;;;5030925;28;20459;-93
2023/12/21 10:31:49;;;;;;;15.15;2.13;;;10.80;99.90;;;;;;5064041;28;20977;-91
2023/12/21 10:34:15;;;;;;;15.57;2.05;;;10.90;99.90;;;;;;5014949;28;20402;-94
2023/12/21 10:36:44;;;;;;;16.40;2.40;;;10.90;99.90;;;;;;5064283;28;20494;-92
2023/12/21 10:39:11;;;;;;;15.93;2.03;;;11.00;99.90;;;;;;5048405;28;20414;-90
2023/12/21 10:41:39;;;;;;;15.52;2.88;;;11.10;99.90;;;;;;5015192;28;20405;-93
2023/12/21 10:44:05;;;;;;;18.50;2.22;;;11.10;99.90;;;;;;5047669;28;20958;-92
2023/12/21 10:46:31;;;;;;;17.50;2.55;;;11.30;99.90;;;;;;5014745;28;20406;-92
2023/12/21 10:49:00;;;;;;;18.63;2.55;;;11.50;99.90;;;;;;5014519;28;20401;-89
2023/12/21 10:51:31;;;;;;;17.98;2.72;;;11.20;99.90;;;;;;5015066;28;20417;-93
2023/12/21 10:54:02;;;;;;;17.47;3.20;;;11.10;99.90;;;;;;5031058;28;20478;-91
2023/12/21 10:56:28;;;;;;;20.65;2.90;;;11.00;99.90;;;;;;5014838;28;20406;-92
2023/12/21 10:58:55;;;;;;;18.50;2.55;;;11.20;99.90;;;;;;5014654;28;20441;-93
2023/12/21 11:01:24;;;;;;;21.23;2.65;;;11.70;99.90;;;;;;5014978;28;20448;-93
2023/12/21 11:03:52;;;;;;;19.25;2.90;;;11.40;99.90;;;;;;5014122;28;20409;-91
2023/12/21 11:06:18;;;;;;;20.77;3.22;;;11.40;99.90;;;;;;5014124;28;20409;-90
2023/12/21 11:08:45;;;;;;;18.60;2.60;;;11.10;99.90;;;;;;5016197;28;20417;-93
2023/12/21 11:11:24;;;;;;;20.27;2.92;;;11.20;99.90;;;;;;5014117;28;20409;-93
2023/12/21 11:13:52;;;;;;;20.93;3.43;;;11.20;99.90;;;;;;5030853;28;20449;-93
2023/12/21 11:16:33;;;;;;;18.00;3.07;;;11.20;99.90;;;;;;5024703;28;20497;-92
2023/12/21 11:19:02;;;;;;;19.65;3.00;;;11.20;99.90;;;;;;4996774;28;20417;-91
2023/12/21 11:21:29;;;;;;;20.65;3.47;;;11.40;99.90;;;;;;5047364;28;20441;-92
2023/12/21 11:23:56;;;;;;;21.10;3.15;;;12.00;99.90;;;;;;5013606;28;20397;-93
2023/12/21 11:26:27;;;;;;;18.63;2.95;;;11.30;99.90;;;;;;5047205;28;20413;-89
2023/12/21 11:29:04;;;;;;;21.45;3.40;;;11.70;99.90;;;;;;5027004;28;20411;-92
2023/12/21 11:31:53;;;;;;;18.93;2.60;;;11.40;99.90;;;;;;5014753;28;20489;-93
2023/12/21 11:34:23;;;;;;;19.65;3.38;;;11.40;99.90;;;;;;5014208;28;20414;-93
2023/12/21 11:36:50;;;;;;;21.27;2.90;;;11.60;99.90;;;;;;5013890;28;20408;-90
2023/12/21 11:39:20;;;;;;;19.33;3.15;;;11.50;99.90;;;;;;5014929;28;20397;-94
2023/12/21 11:41:59;;;;;;;22.95;3.60;;;12.10;99.90;;;;;;5012561;28;20500;-94
2023/12/21 11:44:36;;;;;;;18.80;3.30;;;11.60;99.90;;;;;;5014686;28;20528;-94
2023/12/21 11:47:04;;;;;;;19.85;2.92;;;11.50;99.90;;;;;;5030563;28;20409;-93
2023/12/21 11:49:30;;;;;;;21.65;3.53;;;11.50;99.90;;;;;;5013745;28;20413;-93
2023/12/21 11:51:56;;;;;;;19.77;3.22;;;11.50;99.90;;;;;;5014454;28;20413;-93
2023/12/21 11:54:23;;;;;;;19.95;3.80;;;11.60;99.90;;;;;;5013655;28;20547;-93
2023/12/21 11:56:55;;;;;;;20.83;3.63;;;11.50;99.90;;;;;;5013707;28;20401;-91
2023/12/21 11:59:27;;;;;;;19.87;3.07;;;11.80;99.90;;;;;;4995340;28;20571;-94
2023/12/21 12:01:53;;;;;;;20.85;3.30;;;11.50;99.90;;;;;;5010775;28;20776;-91
2023/12/21 12:04:19;;;;;;;20.70;2.95;;;11.70;99.90;;;;;;5025326;28;20415;-90
2023/12/21 12:06:47;;;;;;;21.95;3.67;;;11.60;99.90;;;;;;5043503;28;20415;-93
2023/12/21 12:09:17;;;;;;;20.43;3.23;;;11.70;99.90;;;;;;5026651;28;20407;-93
2023/12/21 12:11:42;;;;;;;22.60;3.73;;;11.70;99.90;;;;;;5025635;28;20449;-92
2023/12/21 12:14:11;;;;;;;23.52;3.83;;;11.70;99.90;;;;;;5026339;28;20498;-95
2023/12/21 12:16:37;;;;;;;22.30;3.50;;;11.60;99.90;;;;;;5026247;28;20422;-92
2023/12/21 12:19:03;;;;;;;19.65;3.25;;;11.60;99.90;;;;;;5025311;28;20434;-93
2023/12/21 12:21:30;;;;;;;21.35;3.70;;;11.70;99.90;;;;;;5025567;28;20915;-93
2023/12/21 12:24:01;;;;;;;21.08;3.45;;;11.60;99.90;;;;;;5011594;28;20503;-92
2023/12/21 12:26:27;;;;;;;21.17;3.10;;;11.60;99.90;;;;;;4993931;28;20426;-92
2023/12/21 12:28:53;;;;;;;23.40;4.28;;;11.70;99.90;;;;;;5010377;28;20494;-93
2023/12/21 12:31:19;;;;;;;22.23;4.28;;;11.60;99.90;;;;;;5026797;28;20841;-93
2023/12/21 12:33:49;;;;;;;19.52;3.80;;;11.70;99.90;;;;;;5027471;28;20794;-92
2023/12/21 12:36:32;;;;;;;21.73;3.63;;;11.70;99.90;;;;;;5026680;28;20412;-93
2023/12/21 12:38:58;;;;;;;20.63;3.78;;;11.60;99.90;;;;;;5027383;28;20755;-91
2023/12/21 12:41:24;;;;;;;22.70;3.90;;;11.60;99.90;;;;;;4994836;28;20438;-92